Time;durP1;ratioP1;P1;durP2;ratioP2;P2;SDS_P1;SDS_P2;PMS_P1;PMS_P2;Temp;Humidity;BMP_temperature;BMP_pressure;BME280_temperature;BME280_humidity;BME280_pressure;Samples;Min_cycle;Max_cycle;Signal;HPM_P1;HPM_P2
2024/01/15 00:00:48;;;;;;;4.38;1.00;;;3.00;99.90;;;;;;4992295;28;20049;-73
2024/01/15 00:03:13;;;;;;;2.92;1.80;;;3.10;99.90;;;;;;5006528;28;20053;-73
2024/01/15 00:05:39;;;;;;;1.42;1.33;;;3.20;99.90;;;;;;5025860;28;20486;-73
2024/01/15 00:08:05;;;;;;;4.03;1.55;;;3.20;99.90;;;;;;5007508;28;20053;-73
2024/01/15 00:10:30;;;;;;;8.00;2.10;;;3.20;99.90;;;;;;5007795;28;20050;-73
2024/01/15 00:12:56;;;;;;;1.15;0.43;;;3.20;99.90;;;;;;5025352;28;20041;-73
2024/01/15 00:15:22;;;;;;;2.55;1.55;;;3.20;99.90;;;;;;5007764;28;20049;-74
2024/01/15 00:17:47;;;;;;;8.43;2.20;;;3.20;99.90;;;;;;5006475;28;20041;-73
2024/01/15 00:20:13;;;;;;;3.80;1.60;;;3.30;99.90;;;;;;5025729;28;20108;-73
2024/01/15 00:22:39;;;;;;;11.13;1.70;;;3.20;99.90;;;;;;4991300;28;21212;-73
2024/01/15 00:25:05;;;;;;;1.63;1.50;;;3.20;99.90;;;;;;5006617;28;20501;-73
2024/01/15 00:27:30;;;;;;;1.30;0.90;;;3.20;99.90;;;;;;5025367;28;20045;-73
2024/01/15 00:29:56;;;;;;;4.32;1.92;;;3.20;99.90;;;;;;5007025;28;20045;-73
2024/01/15 00:32:21;;;;;;;3.50;1.17;;;3.30;99.90;;;;;;5005868;28;20336;-73
2024/01/15 00:34:47;;;;;;;2.00;1.30;;;3.30;99.90;;;;;;5008386;28;20045;-73
2024/01/15 00:37:13;;;;;;;1.50;1.40;;;3.30;99.90;;;;;;5024901;28;20091;-73
2024/01/15 00:39:38;;;;;;;4.43;2.55;;;3.40;99.90;;;;;;5007105;28;20144;-73
2024/01/15 00:42:04;;;;;;;5.30;2.33;;;3.40;99.90;;;;;;5025190;28;20065;-73
2024/01/15 00:44:30;;;;;;;0.68;0.68;;;3.50;99.90;;;;;;5006867;28;20059;-73
2024/01/15 00:46:55;;;;;;;0.52;0.52;;;3.40;99.90;;;;;;5005475;28;20067;-73
2024/01/15 00:49:21;;;;;;;1.55;1.38;;;3.20;99.90;;;;;;5007384;28;20050;-73
2024/01/15 00:51:47;;;;;;;0.85;0.85;;;3.10;99.90;;;;;;5024992;28;20092;-73
2024/01/15 00:54:13;;;;;;;3.38;1.67;;;2.90;99.90;;;;;;5006095;28;20124;-73
2024/01/15 00:56:38;;;;;;;1.23;0.52;;;2.80;99.90;;;;;;5024779;28;20495;-73
2024/01/15 00:59:04;;;;;;;3.60;1.65;;;2.70;99.90;;;;;;5017058;28;20744;-73
2024/01/15 01:01:29;;;;;;;0.77;0.77;;;2.60;99.90;;;;;;5021966;28;20380;-74
2024/01/15 01:03:55;;;;;;;5.28;1.48;;;2.50;99.90;;;;;;5006111;28;20064;-74
2024/01/15 01:06:21;;;;;;;0.73;0.70;;;2.50;99.90;;;;;;5005943;28;20085;-74
2024/01/15 01:08:46;;;;;;;0.60;0.60;;;2.50;99.90;;;;;;5006699;28;20128;-73
2024/01/15 01:11:16;;;;;;;1.92;1.67;;;2.50;99.90;;;;;;5024120;28;20065;-73
2024/01/15 01:13:42;;;;;;;2.20;2.10;;;2.50;99.90;;;;;;5006400;28;20045;-73
2024/01/15 01:16:08;;;;;;;2.33;1.33;;;2.50;99.90;;;;;;5023632;28;20029;-73
2024/01/15 01:18:33;;;;;;;5.25;1.60;;;2.50;99.90;;;;;;4989928;28;20046;-73
2024/01/15 01:20:59;;;;;;;3.80;1.60;;;2.60;99.90;;;;;;5024018;28;20041;-73
2024/01/15 01:23:24;;;;;;;5.72;1.98;;;2.60;99.90;;;;;;5023586;28;20037;-74
2024/01/15 01:25:50;;;;;;;4.45;2.05;;;2.60;99.90;;;;;;5006797;28;20172;-74
2024/01/15 01:28:16;;;;;;;2.55;1.65;;;2.70;99.90;;;;;;4990355;28;20614;-73
2024/01/15 01:30:41;;;;;;;0.85;0.85;;;2.70;99.90;;;;;;5023750;28;20277;-73
2024/01/15 01:33:07;;;;;;;2.88;1.77;;;2.70;99.90;;;;;;5022945;28;20106;-73
2024/01/15 01:35:32;;;;;;;1.02;0.77;;;2.70;99.90;;;;;;4996600;28;20061;-73
2024/01/15 01:37:58;;;;;;;9.45;2.65;;;2.70;99.90;;;;;;4999860;28;20419;-74
2024/01/15 01:40:23;;;;;;;2.95;2.72;;;2.80;99.90;;;;;;5024173;28;20049;-73
2024/01/15 01:42:49;;;;;;;5.30;1.42;;;2.70;99.90;;;;;;5024247;28;20067;-73
2024/01/15 01:45:15;;;;;;;2.00;1.27;;;2.80;99.90;;;;;;5023872;28;20103;-73
2024/01/15 01:47:41;;;;;;;2.95;1.77;;;2.80;99.90;;;;;;5005498;28;20045;-73
2024/01/15 01:50:07;;;;;;;2.53;0.85;;;2.80;99.90;;;;;;5005613;28;20536;-73
2024/01/15 01:52:33;;;;;;;1.52;1.00;;;2.90;99.90;;;;;;5005666;28;20407;-73
2024/01/15 01:55:01;;;;;;;3.92;1.85;;;2.90;99.90;;;;;;5024106;28;20057;-73
2024/01/15 01:57:26;;;;;;;1.65;0.93;;;2.90;99.90;;;;;;5005580;28;20404;-74
2024/01/15 01:59:53;;;;;;;14.85;3.45;;;2.90;99.90;;;;;;5000198;28;20034;-74
2024/01/15 02:02:19;;;;;;;2.95;2.67;;;2.90;99.90;;;;;;4986641;28;20046;-73
2024/01/15 02:04:47;;;;;;;6.07;2.08;;;2.90;99.90;;;;;;5010466;28;20492;-73
2024/01/15 02:07:13;;;;;;;5.95;2.15;;;2.90;99.90;;;;;;5005615;28;20045;-73
2024/01/15 02:09:38;;;;;;;3.45;1.90;;;2.90;99.90;;;;;;4996427;28;20042;-73
2024/01/15 02:12:04;;;;;;;7.70;1.98;;;2.90;99.90;;;;;;4998247;28;20052;-73
2024/01/15 02:14:30;;;;;;;2.72;0.88;;;2.90;99.90;;;;;;5065185;23;20073;-73
2024/01/15 02:16:56;;;;;;;5.20;1.55;;;2.80;99.90;;;;;;4994233;28;20049;-73
2024/01/15 02:19:21;;;;;;;4.30;0.85;;;2.80;99.90;;;;;;5021072;28;20075;-74
2024/01/15 02:21:47;;;;;;;3.00;1.70;;;2.80;99.90;;;;;;5016687;28;20380;-73
2024/01/15 02:24:12;;;;;;;3.80;2.10;;;2.80;99.90;;;;;;5003645;28;20049;-73
2024/01/15 02:26:39;;;;;;;4.07;1.67;;;2.80;99.90;;;;;;5005509;28;20045;-73
2024/01/15 02:29:08;;;;;;;7.53;1.80;;;2.80;99.90;;;;;;5000617;28;20586;-74
2024/01/15 02:31:34;;;;;;;1.60;1.50;;;2.70;99.90;;;;;;5022625;28;20045;-73
2024/01/15 02:34:00;;;;;;;3.45;2.42;;;2.70;99.90;;;;;;5015199;28;20038;-73
2024/01/15 02:36:25;;;;;;;17.45;3.63;;;2.70;99.90;;;;;;5034930;28;20056;-74
2024/01/15 02:38:51;;;;;;;22.95;3.10;;;2.70;99.90;;;;;;5022153;28;20116;-74
2024/01/15 02:41:16;;;;;;;3.70;1.48;;;2.70;99.90;;;;;;5022673;28;20111;-74
2024/01/15 02:43:42;;;;;;;4.18;1.33;;;2.80;99.90;;;;;;5030867;28;20484;-73
2024/01/15 02:46:08;;;;;;;1.83;0.90;;;2.70;99.90;;;;;;5019633;28;20054;-73
2024/01/15 02:48:34;;;;;;;1.30;0.90;;;2.70;99.90;;;;;;5010888;28;20058;-73
2024/01/15 02:51:01;;;;;;;0.32;0.32;;;2.70;99.90;;;;;;5019594;28;20278;-73
2024/01/15 02:53:26;;;;;;;1.52;1.02;;;2.70;99.90;;;;;;5037956;28;20041;-73
2024/01/15 02:55:52;;;;;;;3.40;1.55;;;2.70;99.90;;;;;;5016022;28;20400;-74
2024/01/15 02:58:17;;;;;;;0.52;0.52;;;2.70;99.90;;;;;;5018755;28;20045;-73
2024/01/15 03:00:43;;;;;;;1.13;1.02;;;2.70;99.90;;;;;;4997135;28;20505;-73
2024/01/15 03:03:09;;;;;;;1.17;0.70;;;2.70;99.90;;;;;;5008018;28;20042;-73
2024/01/15 03:05:34;;;;;;;5.45;1.98;;;2.70;99.90;;;;;;5015442;28;20404;-73
2024/01/15 03:08:00;;;;;;;3.20;0.75;;;2.80;99.90;;;;;;5022092;28;20037;-73
2024/01/15 03:10:26;;;;;;;1.98;1.60;;;2.70;99.90;;;;;;5023249;28;20049;-74
2024/01/15 03:12:51;;;;;;;2.50;1.17;;;2.80;99.90;;;;;;5002840;28;20111;-74
2024/01/15 03:15:18;;;;;;;2.13;1.00;;;2.80;99.90;;;;;;5014430;28;20064;-73
2024/01/15 03:17:43;;;;;;;0.90;0.80;;;2.80;99.90;;;;;;4988620;28;20061;-73
2024/01/15 03:20:10;;;;;;;1.35;1.27;;;2.80;99.90;;;;;;5002717;28;20050;-73
2024/01/15 03:22:35;;;;;;;4.85;2.28;;;2.90;99.90;;;;;;5035594;28;20096;-73
2024/01/15 03:25:01;;;;;;;0.67;0.67;;;2.80;99.90;;;;;;5021367;28;20499;-73
2024/01/15 03:27:27;;;;;;;1.42;0.68;;;2.80;99.90;;;;;;5020734;28;20053;-73
2024/01/15 03:29:52;;;;;;;3.00;1.30;;;2.80;99.90;;;;;;5036994;28;20079;-74
2024/01/15 03:32:19;;;;;;;0.53;0.53;;;2.80;99.90;;;;;;4993497;28;20093;-73
2024/01/15 03:34:45;;;;;;;1.25;1.17;;;2.80;99.90;;;;;;5017860;28;20085;-73
2024/01/15 03:37:12;;;;;;;0.82;0.68;;;2.70;99.90;;;;;;5025814;28;20494;-73
2024/01/15 03:39:38;;;;;;;0.52;0.45;;;2.80;99.90;;;;;;5002749;28;20053;-74
2024/01/15 03:42:03;;;;;;;9.02;3.05;;;2.80;99.90;;;;;;5036871;28;20040;-74
2024/01/15 03:44:29;;;;;;;1.70;1.52;;;2.80;99.90;;;;;;5021329;28;20045;-74
2024/01/15 03:46:55;;;;;;;2.78;1.85;;;2.80;99.90;;;;;;5022564;28;20038;-74
2024/01/15 03:49:20;;;;;;;0.30;0.30;;;2.80;99.90;;;;;;5006144;28;20478;-74
2024/01/15 03:51:46;;;;;;;0.43;0.43;;;2.70;99.90;;;;;;5028577;28;20033;-73
2024/01/15 03:54:12;;;;;;;0.77;0.60;;;2.80;99.90;;;;;;5003434;28;20472;-73
2024/01/15 03:56:37;;;;;;;0.57;0.57;;;2.70;99.90;;;;;;5028308;28;20137;-73
2024/01/15 03:59:03;;;;;;;1.35;0.40;;;2.70;99.90;;;;;;5029043;28;20380;-73
2024/01/15 04:01:29;;;;;;;0.40;0.40;;;2.60;99.90;;;;;;5025714;28;20045;-73
2024/01/15 04:03:55;;;;;;;1.20;1.10;;;2.60;99.90;;;;;;5016040;28;20515;-74
2024/01/15 04:06:20;;;;;;;0.57;0.52;;;2.60;99.90;;;;;;5035879;28;20050;-74
2024/01/15 04:08:46;;;;;;;0.75;0.17;;;2.60;99.90;;;;;;5017490;28;20046;-73
2024/01/15 04:11:11;;;;;;;6.30;0.75;;;2.60;99.90;;;;;;5017027;28;20492;-73
2024/01/15 04:13:37;;;;;;;0.88;0.85;;;2.50;99.90;;;;;;5016599;28;20048;-73
2024/01/15 04:16:03;;;;;;;4.22;1.20;;;2.50;99.90;;;;;;5020016;28;20111;-73
2024/01/15 04:18:29;;;;;;;1.23;1.10;;;2.50;99.90;;;;;;5025020;28;20038;-73
2024/01/15 04:20:54;;;;;;;0.73;0.73;;;2.50;99.90;;;;;;5001662;28;20463;-73
2024/01/15 04:23:20;;;;;;;1.35;1.17;;;2.50;99.90;;;;;;5018398;28;20050;-74
2024/01/15 04:25:45;;;;;;;2.17;1.80;;;2.50;99.90;;;;;;5022348;28;20450;-73
2024/01/15 04:28:12;;;;;;;1.02;0.93;;;2.50;99.90;;;;;;5019777;28;21716;-73
2024/01/15 04:30:37;;;;;;;2.08;0.73;;;2.50;99.90;;;;;;5025293;28;20077;-73
2024/01/15 04:33:05;;;;;;;1.65;1.05;;;2.50;99.90;;;;;;5024719;28;20100;-73
2024/01/15 04:35:31;;;;;;;3.17;0.85;;;2.50;99.90;;;;;;5005987;28;20064;-73
2024/01/15 04:37:57;;;;;;;2.85;0.98;;;2.50;99.90;;;;;;5033160;28;20050;-73
2024/01/15 04:40:22;;;;;;;2.95;1.52;;;2.50;99.90;;;;;;5035912;28;20539;-73
2024/01/15 04:42:48;;;;;;;0.38;0.30;;;2.50;99.90;;;;;;5020937;28;20397;-73
2024/01/15 04:45:13;;;;;;;11.80;1.05;;;2.50;99.90;;;;;;5020047;28;20049;-73
2024/01/15 04:47:39;;;;;;;6.75;2.35;;;2.50;99.90;;;;;;5019927;28;20516;-73
2024/01/15 04:50:05;;;;;;;3.60;1.30;;;2.50;99.90;;;;;;5020573;28;20739;-73
2024/01/15 04:52:31;;;;;;;0.88;0.88;;;2.50;99.90;;;;;;5023499;28;20045;-73
2024/01/15 04:54:57;;;;;;;2.95;1.50;;;2.50;99.90;;;;;;5029867;28;20041;-73
2024/01/15 04:57:22;;;;;;;5.35;2.47;;;2.50;99.90;;;;;;5020147;28;20475;-73
2024/01/15 04:59:48;;;;;;;1.95;1.63;;;2.50;99.90;;;;;;5033484;28;20558;-73
2024/01/15 05:02:13;;;;;;;1.58;0.90;;;2.40;99.90;;;;;;5006761;28;20048;-73
2024/01/15 05:04:39;;;;;;;1.75;0.90;;;2.40;99.90;;;;;;5011520;28;20823;-73
2024/01/15 05:07:05;;;;;;;1.23;0.80;;;2.30;99.90;;;;;;4987094;28;20038;-73
2024/01/15 05:09:30;;;;;;;1.95;1.77;;;2.30;99.90;;;;;;4993004;28;20376;-73
2024/01/15 05:11:56;;;;;;;3.13;1.02;;;2.20;99.90;;;;;;5006791;28;20038;-73
2024/01/15 05:14:22;;;;;;;6.30;2.63;;;2.20;99.90;;;;;;5004878;28;20183;-74
2024/01/15 05:16:49;;;;;;;2.55;0.95;;;2.20;99.90;;;;;;5004676;28;20046;-73
2024/01/15 05:19:14;;;;;;;14.68;1.95;;;2.20;99.90;;;;;;5009994;28;20720;-73
2024/01/15 05:21:40;;;;;;;2.83;1.17;;;2.20;99.90;;;;;;5014383;28;20075;-73
2024/01/15 05:24:06;;;;;;;1.20;1.10;;;2.10;99.90;;;;;;5019557;28;20133;-74
2024/01/15 05:26:31;;;;;;;6.43;2.50;;;2.10;99.90;;;;;;5010014;28;20042;-73
2024/01/15 05:28:57;;;;;;;2.75;1.98;;;2.10;99.90;;;;;;5021810;28;20057;-74
2024/01/15 05:31:23;;;;;;;2.00;1.45;;;2.20;99.90;;;;;;5032760;28;20514;-73
2024/01/15 05:33:48;;;;;;;3.45;2.30;;;2.20;99.90;;;;;;5020493;28;20053;-73
2024/01/15 05:36:14;;;;;;;6.57;1.57;;;2.20;99.90;;;;;;5003211;28;20538;-73
2024/01/15 05:38:39;;;;;;;1.03;0.97;;;2.20;99.90;;;;;;5023578;28;20077;-73
2024/01/15 05:41:05;;;;;;;2.70;1.25;;;2.30;99.90;;;;;;5008142;28;20042;-73
2024/01/15 05:43:31;;;;;;;1.50;1.40;;;2.30;99.90;;;;;;5038930;28;20037;-73
2024/01/15 05:45:57;;;;;;;1.20;0.82;;;2.30;99.90;;;;;;5023508;28;20053;-73
2024/01/15 05:48:22;;;;;;;3.53;2.08;;;2.30;99.90;;;;;;4995528;28;20073;-73
2024/01/15 05:50:48;;;;;;;2.00;1.67;;;2.40;99.90;;;;;;5008463;28;20089;-73
2024/01/15 05:53:14;;;;;;;1.88;1.38;;;2.40;99.90;;;;;;5024768;28;20639;-73
2024/01/15 05:55:40;;;;;;;2.80;1.30;;;2.40;99.90;;;;;;5024240;28;20041;-73
2024/01/15 05:58:06;;;;;;;2.70;1.77;;;2.50;99.90;;;;;;5035548;28;20080;-73
2024/01/15 06:00:33;;;;;;;3.05;1.92;;;2.50;99.90;;;;;;5017465;28;20048;-73
2024/01/15 06:02:59;;;;;;;1.83;1.35;;;2.50;99.90;;;;;;5032245;28;20057;-73
2024/01/15 06:05:24;;;;;;;1.85;1.23;;;2.50;99.90;;;;;;5005945;28;20045;-73
2024/01/15 06:07:50;;;;;;;2.83;2.28;;;2.60;99.90;;;;;;5036701;28;20195;-75
2024/01/15 06:10:16;;;;;;;1.42;1.25;;;2.60;99.90;;;;;;5008951;28;20041;-73
2024/01/15 06:12:43;;;;;;;2.05;1.13;;;2.60;99.90;;;;;;5031492;28;20664;-73
2024/01/15 06:15:09;;;;;;;6.30;2.23;;;2.50;99.90;;;;;;5009248;28;20157;-74
2024/01/15 06:17:35;;;;;;;0.98;0.65;;;2.50;99.90;;;;;;5015827;28;20085;-74
2024/01/15 06:20:00;;;;;;;0.52;0.52;;;2.50;99.90;;;;;;5011862;28;20334;-74
2024/01/15 06:22:28;;;;;;;1.05;0.47;;;2.40;99.90;;;;;;4996951;28;20052;-74
2024/01/15 06:24:55;;;;;;;0.73;0.45;;;2.40;99.90;;;;;;5018937;28;20046;-75
2024/01/15 06:27:21;;;;;;;1.40;0.90;;;2.30;99.90;;;;;;5002869;28;20635;-75
2024/01/15 06:29:49;;;;;;;2.70;1.00;;;2.30;99.90;;;;;;5032894;28;20052;-74
2024/01/15 06:32:14;;;;;;;0.77;0.77;;;2.20;99.90;;;;;;5031370;28;20045;-74
2024/01/15 06:34:40;;;;;;;1.00;0.90;;;2.20;99.90;;;;;;5021520;28;20049;-74
2024/01/15 06:37:06;;;;;;;4.43;1.08;;;2.20;99.90;;;;;;5037588;28;20049;-74
2024/01/15 06:39:32;;;;;;;0.77;0.47;;;2.10;99.90;;;;;;5019946;28;20444;-74
2024/01/15 06:41:57;;;;;;;3.08;1.20;;;2.10;99.90;;;;;;5009847;28;20092;-75
2024/01/15 06:44:23;;;;;;;1.43;1.33;;;2.10;99.90;;;;;;5000777;28;20488;-74
2024/01/15 06:46:48;;;;;;;8.50;1.30;;;2.10;99.90;;;;;;5018861;28;20025;-74
2024/01/15 06:49:15;;;;;;;0.57;0.50;;;2.10;99.90;;;;;;5027364;28;20340;-74
2024/01/15 06:51:41;;;;;;;1.35;1.05;;;2.10;99.90;;;;;;4985521;28;20050;-74
2024/01/15 06:54:07;;;;;;;2.67;1.40;;;2.00;99.90;;;;;;5017623;28;20121;-74
2024/01/15 06:56:33;;;;;;;0.93;0.93;;;2.10;99.90;;;;;;5002839;28;20048;-75
2024/01/15 06:58:58;;;;;;;1.30;1.20;;;2.00;99.90;;;;;;5013060;28;20076;-74
2024/01/15 07:01:24;;;;;;;0.70;0.70;;;2.00;99.90;;;;;;5000616;28;20404;-74
2024/01/15 07:03:49;;;;;;;2.00;1.17;;;2.00;99.90;;;;;;4985741;28;20305;-76
2024/01/15 07:06:16;;;;;;;1.13;0.93;;;2.00;99.90;;;;;;5018241;28;20514;-74
2024/01/15 07:08:42;;;;;;;2.87;1.97;;;2.00;99.90;;;;;;5019823;28;20454;-78
2024/01/15 07:11:08;;;;;;;0.63;0.63;;;2.10;99.90;;;;;;5028250;28;20091;-78
2024/01/15 07:13:36;;;;;;;1.45;1.08;;;2.10;99.90;;;;;;5004203;28;20045;-77
2024/01/15 07:16:02;;;;;;;1.55;0.57;;;2.10;99.90;;;;;;4991781;28;20049;-79
2024/01/15 07:18:27;;;;;;;2.92;1.77;;;2.20;99.90;;;;;;4998854;28;20087;-79
2024/01/15 07:20:53;;;;;;;0.85;0.77;;;2.20;99.90;;;;;;4999675;28;20095;-78
2024/01/15 07:23:19;;;;;;;2.00;1.40;;;2.30;99.90;;;;;;5018236;28;20636;-79
2024/01/15 07:25:45;;;;;;;8.52;2.20;;;2.30;99.90;;;;;;5022420;28;20042;-78
2024/01/15 07:28:10;;;;;;;3.90;1.07;;;2.40;99.90;;;;;;5021308;28;20415;-78
2024/01/15 07:30:38;;;;;;;0.70;0.70;;;2.40;99.90;;;;;;5020323;28;20045;-78
2024/01/15 07:33:04;;;;;;;1.65;1.30;;;2.40;99.90;;;;;;5002362;28;20476;-79
2024/01/15 07:35:30;;;;;;;2.75;1.25;;;2.40;99.90;;;;;;5003009;28;20041;-78
2024/01/15 07:37:55;;;;;;;2.40;1.40;;;2.30;99.90;;;;;;4986249;28;20117;-78
2024/01/15 07:40:21;;;;;;;12.90;1.42;;;2.40;99.90;;;;;;5013611;28;20037;-78
2024/01/15 07:42:47;;;;;;;0.68;0.68;;;2.30;99.90;;;;;;5025725;28;20052;-78
2024/01/15 07:45:13;;;;;;;0.50;0.50;;;2.30;99.90;;;;;;5009267;28;20049;-80
2024/01/15 07:47:38;;;;;;;0.45;0.45;;;2.20;99.90;;;;;;5005409;28;20056;-82
2024/01/15 07:50:05;;;;;;;0.15;0.15;;;2.20;99.90;;;;;;5017462;28;20049;-78
2024/01/15 07:52:31;;;;;;;1.00;0.35;;;2.20;99.90;;;;;;5018343;28;20051;-79
2024/01/15 07:54:56;;;;;;;1.25;0.57;;;2.10;99.90;;;;;;4997684;28;20038;-80
2024/01/15 07:57:22;;;;;;;0.52;0.52;;;2.00;99.90;;;;;;5036254;28;20399;-81
2024/01/15 07:59:48;;;;;;;2.85;1.15;;;2.00;99.90;;;;;;5017057;28;20469;-80
2024/01/15 08:02:14;;;;;;;1.02;0.77;;;2.00;99.90;;;;;;5000022;28;20038;-80
2024/01/15 08:04:39;;;;;;;0.20;0.20;;;1.90;99.90;;;;;;5023668;28;20041;-80
2024/01/15 08:07:06;;;;;;;0.73;0.57;;;1.90;99.90;;;;;;5002211;28;20222;-79
2024/01/15 08:09:32;;;;;;;1.42;0.85;;;1.90;99.90;;;;;;5021138;28;20573;-80
2024/01/15 08:11:58;;;;;;;1.67;0.70;;;1.90;99.90;;;;;;5002392;28;20045;-80
2024/01/15 08:14:23;;;;;;;0.73;0.73;;;2.00;99.90;;;;;;5004209;28;20049;-79
2024/01/15 08:16:49;;;;;;;0.73;0.73;;;2.00;99.90;;;;;;5006457;28;20427;-80
2024/01/15 08:19:15;;;;;;;0.97;0.77;;;2.00;99.90;;;;;;5007073;28;20053;-79
2024/01/15 08:21:42;;;;;;;0.60;0.60;;;2.10;99.90;;;;;;5024728;28;20641;-79
2024/01/15 08:24:08;;;;;;;4.50;1.03;;;2.10;99.90;;;;;;5039520;28;20049;-79
2024/01/15 08:26:34;;;;;;;0.25;0.25;;;2.10;99.90;;;;;;5024721;28;20046;-79
2024/01/15 08:28:59;;;;;;;0.52;0.52;;;2.10;99.90;;;;;;4989612;28;20537;-80
2024/01/15 08:31:25;;;;;;;0.80;0.80;;;2.10;99.90;;;;;;5006123;28;20322;-79
2024/01/15 08:33:51;;;;;;;0.70;0.70;;;2.10;99.90;;;;;;5019986;28;20520;-80
2024/01/15 08:36:16;;;;;;;1.00;0.93;;;2.10;99.90;;;;;;5040140;28;20126;-79
2024/01/15 08:38:42;;;;;;;3.33;1.70;;;2.10;99.90;;;;;;5005793;28;20523;-79
2024/01/15 08:41:08;;;;;;;11.20;2.23;;;2.10;99.90;;;;;;5023851;28;20518;-79
2024/01/15 08:43:34;;;;;;;5.53;1.05;;;2.10;99.90;;;;;;5023968;28;20247;-80
2024/01/15 08:46:00;;;;;;;15.00;2.05;;;2.10;99.90;;;;;;5023188;28;20047;-80
2024/01/15 08:48:27;;;;;;;0.85;0.82;;;2.20;99.90;;;;;;5006134;28;20250;-79
2024/01/15 08:50:53;;;;;;;0.30;0.30;;;2.20;99.90;;;;;;4989948;28;20400;-81
2024/01/15 08:53:19;;;;;;;0.40;0.40;;;2.30;99.90;;;;;;5006867;28;20042;-80
2024/01/15 08:55:44;;;;;;;1.77;1.35;;;2.30;99.90;;;;;;5024148;28;20044;-79
2024/01/15 08:58:10;;;;;;;1.75;1.33;;;2.40;99.90;;;;;;4989805;28;20050;-80
2024/01/15 09:00:36;;;;;;;0.43;0.43;;;2.50;99.90;;;;;;5020420;28;20493;-80
2024/01/15 09:03:02;;;;;;;1.80;0.85;;;2.50;99.90;;;;;;5023122;28;20125;-80
2024/01/15 09:05:27;;;;;;;4.80;0.93;;;2.70;99.90;;;;;;5032934;28;20539;-80
2024/01/15 09:07:53;;;;;;;3.00;1.50;;;2.70;99.90;;;;;;5022492;28;20038;-80
2024/01/15 09:10:20;;;;;;;9.80;2.97;;;2.60;99.90;;;;;;4995749;28;20047;-79
2024/01/15 09:12:45;;;;;;;1.67;1.02;;;2.60;99.90;;;;;;5032752;28;20132;-79
2024/01/15 09:15:11;;;;;;;1.70;1.27;;;2.60;99.90;;;;;;5008119;28;20550;-79
2024/01/15 09:17:36;;;;;;;1.00;1.00;;;2.70;99.90;;;;;;4998584;28;20048;-86
2024/01/15 09:20:04;;;;;;;1.67;1.10;;;2.70;99.90;;;;;;4994957;28;20038;-77
2024/01/15 09:22:30;;;;;;;2.28;2.00;;;2.70;99.90;;;;;;4999558;28;20045;-76
2024/01/15 09:24:55;;;;;;;4.60;1.97;;;2.70;99.90;;;;;;5000760;28;20048;-77
2024/01/15 09:27:21;;;;;;;3.35;1.00;;;2.70;99.90;;;;;;4999662;28;20041;-79
2024/01/15 09:29:46;;;;;;;4.13;1.20;;;2.70;99.90;;;;;;5017437;28;20068;-75
2024/01/15 09:32:12;;;;;;;0.98;0.80;;;2.80;99.90;;;;;;5001719;28;20100;-76
2024/01/15 09:34:38;;;;;;;2.83;0.98;;;2.80;99.90;;;;;;5003253;28;20040;-74
2024/01/15 09:37:05;;;;;;;0.20;0.20;;;2.80;99.90;;;;;;5001269;28;20100;-74
2024/01/15 09:39:31;;;;;;;0.68;0.68;;;2.80;99.90;;;;;;5028114;28;20050;-73
2024/01/15 09:41:57;;;;;;;5.18;1.95;;;2.80;99.90;;;;;;5000537;28;20034;-76
2024/01/15 09:44:23;;;;;;;1.48;0.65;;;2.80;99.90;;;;;;5000845;28;20042;-77
2024/01/15 09:46:50;;;;;;;0.55;0.55;;;2.80;99.90;;;;;;5002790;28;20068;-76
2024/01/15 09:49:16;;;;;;;0.50;0.38;;;2.80;99.90;;;;;;5024565;28;20050;-75
2024/01/15 09:51:42;;;;;;;0.98;0.25;;;2.80;99.90;;;;;;5000862;28;20034;-77
2024/01/15 09:54:09;;;;;;;0.28;0.28;;;2.80;99.90;;;;;;5000275;28;20052;-75
2024/01/15 09:56:35;;;;;;;0.52;0.52;;;2.70;99.90;;;;;;4984971;28;20053;-76
2024/01/15 09:59:01;;;;;;;0.90;0.57;;;2.70;99.90;;;;;;5001226;28;20532;-75
2024/01/15 10:01:28;;;;;;;3.72;0.50;;;2.70;99.90;;;;;;5001848;28;20157;-76
2024/01/15 10:03:54;;;;;;;7.65;1.58;;;2.70;99.90;;;;;;4999719;28;20041;-76
2024/01/15 10:06:21;;;;;;;5.47;1.50;;;2.80;99.90;;;;;;4995669;28;20044;-76
2024/01/15 10:08:48;;;;;;;0.68;0.50;;;2.80;99.90;;;;;;4998868;28;20088;-77
2024/01/15 10:11:14;;;;;;;0.30;0.30;;;2.80;99.90;;;;;;4999465;28;20081;-77
2024/01/15 10:13:40;;;;;;;1.10;0.82;;;2.80;99.90;;;;;;4997398;28;20077;-76
2024/01/15 10:16:06;;;;;;;0.65;0.57;;;2.80;99.90;;;;;;5002809;28;20050;-77
2024/01/15 10:18:32;;;;;;;1.52;1.42;;;2.70;99.90;;;;;;5021956;28;20045;-74
2024/01/15 10:20:58;;;;;;;0.55;0.55;;;2.50;99.90;;;;;;5003419;28;20071;-77
2024/01/15 10:23:24;;;;;;;0.35;0.35;;;2.50;99.90;;;;;;4999968;28;20037;-76
2024/01/15 10:25:51;;;;;;;1.08;0.95;;;2.40;99.90;;;;;;4989780;28;20048;-77
2024/01/15 10:28:19;;;;;;;3.63;0.35;;;2.40;99.90;;;;;;5027876;28;20109;-74
2024/01/15 10:30:45;;;;;;;0.77;0.77;;;2.40;99.90;;;;;;5003230;28;20052;-76
2024/01/15 10:33:11;;;;;;;2.45;1.10;;;2.40;99.90;;;;;;5020959;28;20140;-74
2024/01/15 10:35:37;;;;;;;3.08;2.08;;;2.40;99.90;;;;;;5003092;28;20384;-74
2024/01/15 10:38:05;;;;;;;0.20;0.20;;;2.50;99.90;;;;;;5020636;28;20129;-73
2024/01/15 10:40:31;;;;;;;1.60;0.80;;;2.50;99.90;;;;;;5003001;28;20297;-74
2024/01/15 10:42:57;;;;;;;0.30;0.30;;;2.50;99.90;;;;;;5003121;28;20045;-74
2024/01/15 10:45:23;;;;;;;0.73;0.73;;;2.60;99.90;;;;;;4985688;28;20033;-76
2024/01/15 10:47:49;;;;;;;0.68;0.47;;;2.70;99.90;;;;;;5003554;28;20230;-78
2024/01/15 10:50:15;;;;;;;16.75;1.70;;;2.70;99.90;;;;;;5020954;28;20045;-78
2024/01/15 10:52:45;;;;;;;7.43;2.33;;;2.70;99.90;;;;;;5005201;28;20034;-78
2024/01/15 10:55:11;;;;;;;6.68;1.98;;;2.80;99.90;;;;;;5006660;28;20064;-78
2024/01/15 10:57:38;;;;;;;2.00;1.77;;;2.80;99.90;;;;;;5021450;28;20120;-78
2024/01/15 11:00:08;;;;;;;0.80;0.30;;;2.90;99.90;;;;;;5001464;28;20436;-79
2024/01/15 11:02:36;;;;;;;0.47;0.47;;;3.00;99.90;;;;;;4986789;28;20045;-79
2024/01/15 11:05:02;;;;;;;0.25;0.25;;;3.00;99.90;;;;;;5019679;28;20396;-79
2024/01/15 11:07:30;;;;;;;0.80;0.60;;;3.00;99.90;;;;;;5008572;28;20103;-79
2024/01/15 11:09:57;;;;;;;0.73;0.70;;;3.00;99.90;;;;;;5020585;28;20107;-79
2024/01/15 11:12:23;;;;;;;4.60;0.98;;;3.00;99.90;;;;;;5020912;28;20488;-79
2024/01/15 11:14:49;;;;;;;1.65;1.55;;;3.10;99.90;;;;;;5019361;28;20275;-79
2024/01/15 11:17:17;;;;;;;1.52;1.27;;;3.10;99.90;;;;;;5001635;28;20124;-79
2024/01/15 11:19:45;;;;;;;0.20;0.20;;;3.10;99.90;;;;;;4985978;28;20051;-79
2024/01/15 11:22:30;;;;;;;1.85;0.95;;;3.00;99.90;;;;;;5023453;28;20088;-79
2024/01/15 11:25:18;;;;;;;1.38;0.73;;;2.80;99.90;;;;;;5019520;28;20439;-78
2024/01/15 11:27:51;;;;;;;0.75;0.55;;;2.60;99.90;;;;;;4986132;28;20242;-78
2024/01/15 11:30:16;;;;;;;1.30;0.70;;;2.40;99.90;;;;;;5002235;28;20095;-78
2024/01/15 11:32:42;;;;;;;1.60;0.77;;;2.30;99.90;;;;;;5021144;28;20342;-79
2024/01/15 11:35:11;;;;;;;0.20;0.20;;;2.20;99.90;;;;;;5019222;28;20510;-78
2024/01/15 11:37:52;;;;;;;2.72;0.38;;;2.10;99.90;;;;;;5003693;28;20045;-78
2024/01/15 11:40:18;;;;;;;0.63;0.30;;;2.00;99.90;;;;;;5002938;28;20084;-78
2024/01/15 11:42:48;;;;;;;0.83;0.77;;;2.00;99.90;;;;;;5002226;28;20628;-79
2024/01/15 11:45:18;;;;;;;1.50;1.33;;;2.00;99.90;;;;;;5014353;28;20646;-79
2024/01/15 11:48:05;;;;;;;0.17;0.17;;;1.90;99.90;;;;;;5003064;28;20099;-78
2024/01/15 11:50:31;;;;;;;1.15;0.95;;;2.00;99.90;;;;;;5001807;28;20145;-86
2024/01/15 11:53:01;;;;;;;14.63;0.73;;;2.00;99.90;;;;;;5002293;28;20108;-75
2024/01/15 11:55:35;;;;;;;2.17;0.40;;;2.00;99.90;;;;;;5002796;28;20045;-77
2024/01/15 11:58:02;;;;;;;0.52;0.52;;;2.00;99.90;;;;;;5020504;28;20440;-78
2024/01/15 12:00:28;;;;;;;2.83;1.50;;;2.00;99.90;;;;;;5000337;28;20057;-78
2024/01/15 12:02:54;;;;;;;1.85;1.05;;;2.10;99.90;;;;;;5004700;28;20033;-78
2024/01/15 12:05:20;;;;;;;1.67;1.58;;;2.10;99.90;;;;;;5002355;28;20061;-78
2024/01/15 12:07:47;;;;;;;1.55;1.38;;;2.20;99.90;;;;;;5002907;28;20365;-78
2024/01/15 12:10:18;;;;;;;1.13;1.13;;;2.20;99.90;;;;;;5019075;28;20045;-78
2024/01/15 12:13:05;;;;;;;0.50;0.50;;;2.30;99.90;;;;;;4985667;28;20037;-78
2024/01/15 12:15:31;;;;;;;0.20;0.20;;;2.30;99.90;;;;;;5007131;28;20045;-78
2024/01/15 12:17:58;;;;;;;0.80;0.60;;;2.20;99.90;;;;;;5019685;28;20041;-79
2024/01/15 12:20:25;;;;;;;0.47;0.35;;;2.30;99.90;;;;;;5001627;28;20057;-79
2024/01/15 12:22:51;;;;;;;0.43;0.35;;;2.30;99.90;;;;;;5019546;28;20131;-78
2024/01/15 12:25:16;;;;;;;1.45;0.65;;;2.30;99.90;;;;;;5005802;28;20053;-79
2024/01/15 12:27:42;;;;;;;2.42;2.05;;;2.40;99.90;;;;;;4999345;28;20129;-78
2024/01/15 12:30:11;;;;;;;4.38;1.38;;;2.40;99.90;;;;;;5001045;28;20407;-78
2024/01/15 12:32:37;;;;;;;1.30;0.85;;;2.50;99.90;;;;;;5002526;28;20144;-79
2024/01/15 12:35:04;;;;;;;0.93;0.77;;;2.50;99.90;;;;;;5018867;28;20124;-78
2024/01/15 12:37:30;;;;;;;1.67;0.98;;;2.50;99.90;;;;;;5002117;28;20045;-78
2024/01/15 12:39:55;;;;;;;1.98;0.70;;;2.60;99.90;;;;;;5001664;28;20099;-78
2024/01/15 12:42:21;;;;;;;7.93;1.60;;;2.60;99.90;;;;;;5000789;28;20033;-78
2024/01/15 12:44:47;;;;;;;7.30;3.10;;;2.60;99.90;;;;;;5002653;28;20052;-78
2024/01/15 12:47:14;;;;;;;1.98;1.80;;;2.60;99.90;;;;;;5001791;28;20096;-78
2024/01/15 12:49:39;;;;;;;1.23;1.13;;;2.70;99.90;;;;;;5002178;28;20551;-78
2024/01/15 12:52:08;;;;;;;10.18;2.17;;;2.60;99.90;;;;;;5001200;28;20083;-79